sensor_id;sensor_type;location;lat;lon;timestamp;P1;durP1;ratioP1;P2;durP2;ratioP2
6177;SDS011;3122;48.208;11.174;2022-09-09T00:06:45;3.50;;;2.70;;
6177;SDS011;3122;48.208;11.174;2022-09-09T00:12:00;3.03;;;2.20;;
6177;SDS011;3122;48.208;11.174;2022-09-09T00:23:25;2.87;;;2.40;;
6177;SDS011;3122;48.208;11.174;2022-09-09T00:28:29;2.50;;;2.30;;
6177;SDS011;3122;48.208;11.174;2022-09-09T00:33:32;3.27;;;2.90;;
6177;SDS011;3122;48.208;11.174;2022-09-09T00:38:34;3.80;;;2.83;;
6177;SDS011;3122;48.208;11.174;2022-09-09T00:43:38;4.30;;;2.70;;
6177;SDS011;3122;48.208;11.174;2022-09-09T00:54:22;6.33;;;2.43;;
6177;SDS011;3122;48.208;11.174;2022-09-09T00:59:52;2.60;;;2.40;;
6177;SDS011;3122;48.208;11.174;2022-09-09T01:05:02;3.17;;;2.50;;
6177;SDS011;3122;48.208;11.174;2022-09-09T01:10:13;3.60;;;3.00;;
6177;SDS011;3122;48.208;11.174;2022-09-09T01:15:27;2.40;;;2.20;;
6177;SDS011;3122;48.208;11.174;2022-09-09T01:20:54;2.20;;;2.10;;
6177;SDS011;3122;48.208;11.174;2022-09-09T01:31:18;2.57;;;2.37;;
6177;SDS011;3122;48.208;11.174;2022-09-09T01:36:29;2.60;;;2.40;;
6177;SDS011;3122;48.208;11.174;2022-09-09T01:41:37;2.37;;;2.27;;
6177;SDS011;3122;48.208;11.174;2022-09-09T01:46:38;2.73;;;2.53;;
6177;SDS011;3122;48.208;11.174;2022-09-09T01:51:39;2.30;;;2.20;;
6177;SDS011;3122;48.208;11.174;2022-09-09T02:02:11;2.80;;;2.30;;
6177;SDS011;3122;48.208;11.174;2022-09-09T02:12:24;2.23;;;2.13;;
6177;SDS011;3122;48.208;11.174;2022-09-09T02:17:27;2.40;;;2.20;;
6177;SDS011;3122;48.208;11.174;2022-09-09T02:22:32;2.40;;;2.00;;
6177;SDS011;3122;48.208;11.174;2022-09-09T02:27:35;5.43;;;2.53;;
6177;SDS011;3122;48.208;11.174;2022-09-09T02:32:36;2.40;;;2.20;;
6177;SDS011;3122;48.208;11.174;2022-09-09T02:37:40;2.80;;;2.07;;
6177;SDS011;3122;48.208;11.174;2022-09-09T02:42:43;2.87;;;2.50;;
6177;SDS011;3122;48.208;11.174;2022-09-09T02:58:16;2.33;;;2.13;;
6177;SDS011;3122;48.208;11.174;2022-09-09T03:03:18;2.50;;;2.00;;
6177;SDS011;3122;48.208;11.174;2022-09-09T03:08:20;3.00;;;2.40;;
6177;SDS011;3122;48.208;11.174;2022-09-09T03:13:20;3.00;;;2.60;;
6177;SDS011;3122;48.208;11.174;2022-09-09T03:18:21;2.30;;;2.20;;
6177;SDS011;3122;48.208;11.174;2022-09-09T03:23:21;2.40;;;2.30;;
6177;SDS011;3122;48.208;11.174;2022-09-09T03:28:22;6.80;;;2.80;;
6177;SDS011;3122;48.208;11.174;2022-09-09T03:33:25;2.63;;;2.43;;
6177;SDS011;3122;48.208;11.174;2022-09-09T03:38:25;2.53;;;2.33;;
6177;SDS011;3122;48.208;11.174;2022-09-09T03:43:26;2.70;;;2.50;;
6177;SDS011;3122;48.208;11.174;2022-09-09T03:48:28;2.73;;;2.53;;
6177;SDS011;3122;48.208;11.174;2022-09-09T03:53:29;4.17;;;2.37;;
6177;SDS011;3122;48.208;11.174;2022-09-09T03:58:29;2.70;;;2.50;;
6177;SDS011;3122;48.208;11.174;2022-09-09T04:03:30;4.40;;;2.67;;
6177;SDS011;3122;48.208;11.174;2022-09-09T04:08:31;2.73;;;2.53;;
6177;SDS011;3122;48.208;11.174;2022-09-09T04:13:36;3.90;;;2.20;;
6177;SDS011;3122;48.208;11.174;2022-09-09T04:18:38;2.40;;;2.07;;
6177;SDS011;3122;48.208;11.174;2022-09-09T04:23:39;2.43;;;2.33;;
6177;SDS011;3122;48.208;11.174;2022-09-09T04:28:40;2.10;;;2.00;;
6177;SDS011;3122;48.208;11.174;2022-09-09T04:33:40;2.50;;;2.30;;
6177;SDS011;3122;48.208;11.174;2022-09-09T04:38:41;2.30;;;2.20;;
6177;SDS011;3122;48.208;11.174;2022-09-09T04:43:44;2.27;;;2.03;;
6177;SDS011;3122;48.208;11.174;2022-09-09T04:48:45;2.57;;;2.37;;
6177;SDS011;3122;48.208;11.174;2022-09-09T04:53:45;2.37;;;2.20;;
6177;SDS011;3122;48.208;11.174;2022-09-09T04:58:47;3.13;;;2.43;;
6177;SDS011;3122;48.208;11.174;2022-09-09T05:03:48;2.10;;;2.00;;
6177;SDS011;3122;48.208;11.174;2022-09-09T05:08:49;3.97;;;2.60;;
6177;SDS011;3122;48.208;11.174;2022-09-09T05:13:49;2.27;;;2.17;;
6177;SDS011;3122;48.208;11.174;2022-09-09T05:18:52;2.37;;;2.17;;
6177;SDS011;3122;48.208;11.174;2022-09-09T05:23:52;3.40;;;3.20;;
6177;SDS011;3122;48.208;11.174;2022-09-09T05:28:53;3.03;;;2.50;;
6177;SDS011;3122;48.208;11.174;2022-09-09T05:33:53;2.33;;;2.13;;
6177;SDS011;3122;48.208;11.174;2022-09-09T05:38:54;3.70;;;1.70;;
6177;SDS011;3122;48.208;11.174;2022-09-09T05:43:55;3.43;;;1.93;;
6177;SDS011;3122;48.208;11.174;2022-09-09T05:48:55;1.70;;;1.60;;
6177;SDS011;3122;48.208;11.174;2022-09-09T05:53:56;3.57;;;1.90;;
6177;SDS011;3122;48.208;11.174;2022-09-09T05:58:59;2.53;;;2.07;;
6177;SDS011;3122;48.208;11.174;2022-09-09T06:04:01;2.67;;;2.00;;
6177;SDS011;3122;48.208;11.174;2022-09-09T06:09:02;2.90;;;2.60;;
6177;SDS011;3122;48.208;11.174;2022-09-09T06:14:06;4.57;;;2.90;;
6177;SDS011;3122;48.208;11.174;2022-09-09T06:19:07;2.67;;;2.47;;
6177;SDS011;3122;48.208;11.174;2022-09-09T06:24:08;4.90;;;2.77;;
6177;SDS011;3122;48.208;11.174;2022-09-09T06:29:09;3.60;;;3.30;;
6177;SDS011;3122;48.208;11.174;2022-09-09T06:34:09;5.77;;;4.37;;
6177;SDS011;3122;48.208;11.174;2022-09-09T06:39:10;3.20;;;2.77;;
6177;SDS011;3122;48.208;11.174;2022-09-09T06:44:11;2.27;;;2.17;;
6177;SDS011;3122;48.208;11.174;2022-09-09T06:49:11;2.13;;;2.03;;
6177;SDS011;3122;48.208;11.174;2022-09-09T06:54:13;2.43;;;2.10;;
6177;SDS011;3122;48.208;11.174;2022-09-09T06:59:13;2.80;;;2.60;;
6177;SDS011;3122;48.208;11.174;2022-09-09T07:04:14;3.53;;;2.57;;
6177;SDS011;3122;48.208;11.174;2022-09-09T07:09:15;2.70;;;2.50;;
6177;SDS011;3122;48.208;11.174;2022-09-09T07:14:16;3.07;;;2.60;;
6177;SDS011;3122;48.208;11.174;2022-09-09T07:19:17;5.73;;;2.87;;
6177;SDS011;3122;48.208;11.174;2022-09-09T07:24:17;3.70;;;2.90;;
6177;SDS011;3122;48.208;11.174;2022-09-09T07:29:18;3.87;;;2.97;;
6177;SDS011;3122;48.208;11.174;2022-09-09T07:34:18;3.27;;;2.97;;
6177;SDS011;3122;48.208;11.174;2022-09-09T07:39:19;3.50;;;3.20;;
6177;SDS011;3122;48.208;11.174;2022-09-09T07:44:20;3.70;;;3.00;;
6177;SDS011;3122;48.208;11.174;2022-09-09T07:49:23;2.97;;;2.70;;
6177;SDS011;3122;48.208;11.174;2022-09-09T07:54:24;3.40;;;3.10;;
6177;SDS011;3122;48.208;11.174;2022-09-09T07:59:26;3.43;;;3.10;;
6177;SDS011;3122;48.208;11.174;2022-09-09T08:04:28;3.10;;;2.80;;
6177;SDS011;3122;48.208;11.174;2022-09-09T08:09:29;3.27;;;2.97;;
6177;SDS011;3122;48.208;11.174;2022-09-09T08:14:32;3.00;;;2.73;;
6177;SDS011;3122;48.208;11.174;2022-09-09T08:19:32;3.47;;;3.17;;
6177;SDS011;3122;48.208;11.174;2022-09-09T08:24:35;3.80;;;3.40;;
6177;SDS011;3122;48.208;11.174;2022-09-09T08:29:36;3.40;;;3.07;;
6177;SDS011;3122;48.208;11.174;2022-09-09T08:34:37;3.00;;;2.43;;
6177;SDS011;3122;48.208;11.174;2022-09-09T08:39:38;2.97;;;2.27;;
6177;SDS011;3122;48.208;11.174;2022-09-09T09:06:10;2.43;;;1.90;;
6177;SDS011;3122;48.208;11.174;2022-09-09T09:11:22;2.50;;;2.30;;
6177;SDS011;3122;48.208;11.174;2022-09-09T09:16:27;8.50;;;2.63;;
6177;SDS011;3122;48.208;11.174;2022-09-09T09:21:42;3.90;;;2.40;;
6177;SDS011;3122;48.208;11.174;2022-09-09T09:26:43;2.87;;;2.67;;
6177;SDS011;3122;48.208;11.174;2022-09-09T09:31:48;3.73;;;2.90;;
6177;SDS011;3122;48.208;11.174;2022-09-09T09:36:58;3.87;;;2.63;;
6177;SDS011;3122;48.208;11.174;2022-09-09T09:42:13;2.33;;;2.13;;
6177;SDS011;3122;48.208;11.174;2022-09-09T09:47:18;3.10;;;2.60;;
6177;SDS011;3122;48.208;11.174;2022-09-09T09:52:23;5.27;;;2.73;;
6177;SDS011;3122;48.208;11.174;2022-09-09T09:57:26;2.70;;;2.43;;
6177;SDS011;3122;48.208;11.174;2022-09-09T10:02:36;3.07;;;2.47;;
6177;SDS011;3122;48.208;11.174;2022-09-09T10:07:39;2.30;;;1.90;;
6177;SDS011;3122;48.208;11.174;2022-09-09T10:12:47;2.63;;;2.43;;
6177;SDS011;3122;48.208;11.174;2022-09-09T10:29:47;2.80;;;1.80;;
6177;SDS011;3122;48.208;11.174;2022-09-09T10:40:28;5.90;;;2.13;;
6177;SDS011;3122;48.208;11.174;2022-09-09T10:45:41;2.20;;;2.00;;
6177;SDS011;3122;48.208;11.174;2022-09-09T10:50:59;1.87;;;1.30;;
6177;SDS011;3122;48.208;11.174;2022-09-09T10:56:06;4.30;;;1.57;;
6177;SDS011;3122;48.208;11.174;2022-09-09T11:01:17;1.80;;;1.70;;
6177;SDS011;3122;48.208;11.174;2022-09-09T11:06:25;2.80;;;1.40;;
6177;SDS011;3122;48.208;11.174;2022-09-09T11:11:35;3.10;;;1.67;;
6177;SDS011;3122;48.208;11.174;2022-09-09T11:21:50;1.70;;;1.30;;
6177;SDS011;3122;48.208;11.174;2022-09-09T11:26:54;1.57;;;1.33;;
6177;SDS011;3122;48.208;11.174;2022-09-09T11:42:38;3.77;;;1.60;;
6177;SDS011;3122;48.208;11.174;2022-09-09T11:47:38;2.20;;;1.20;;
6177;SDS011;3122;48.208;11.174;2022-09-09T11:52:40;1.77;;;1.40;;
6177;SDS011;3122;48.208;11.174;2022-09-09T11:57:45;1.70;;;1.37;;
6177;SDS011;3122;48.208;11.174;2022-09-09T12:02:48;3.17;;;1.60;;
6177;SDS011;3122;48.208;11.174;2022-09-09T12:07:51;1.80;;;1.30;;
6177;SDS011;3122;48.208;11.174;2022-09-09T12:13:08;4.23;;;1.33;;
6177;SDS011;3122;48.208;11.174;2022-09-09T12:18:26;2.77;;;1.53;;
6177;SDS011;3122;48.208;11.174;2022-09-09T12:28:54;4.50;;;1.60;;
6177;SDS011;3122;48.208;11.174;2022-09-09T12:34:10;7.80;;;2.03;;
6177;SDS011;3122;48.208;11.174;2022-09-09T12:39:20;2.37;;;1.50;;
6177;SDS011;3122;48.208;11.174;2022-09-09T12:44:30;3.60;;;1.50;;
6177;SDS011;3122;48.208;11.174;2022-09-09T12:49:33;2.57;;;1.27;;
6177;SDS011;3122;48.208;11.174;2022-09-09T12:54:36;2.23;;;1.20;;
6177;SDS011;3122;48.208;11.174;2022-09-09T12:59:38;3.47;;;1.53;;
6177;SDS011;3122;48.208;11.174;2022-09-09T13:04:41;4.63;;;1.77;;
6177;SDS011;3122;48.208;11.174;2022-09-09T13:09:43;4.20;;;1.53;;
6177;SDS011;3122;48.208;11.174;2022-09-09T13:14:45;2.27;;;1.60;;
6177;SDS011;3122;48.208;11.174;2022-09-09T13:19:48;3.20;;;1.40;;
6177;SDS011;3122;48.208;11.174;2022-09-09T13:25:06;2.70;;;1.63;;
6177;SDS011;3122;48.208;11.174;2022-09-09T13:35:24;3.63;;;1.50;;
6177;SDS011;3122;48.208;11.174;2022-09-09T13:40:25;4.27;;;1.90;;
6177;SDS011;3122;48.208;11.174;2022-09-09T13:45:26;2.97;;;1.33;;
6177;SDS011;3122;48.208;11.174;2022-09-09T13:50:27;3.63;;;1.40;;
6177;SDS011;3122;48.208;11.174;2022-09-09T13:55:29;3.57;;;1.57;;
6177;SDS011;3122;48.208;11.174;2022-09-09T14:00:31;3.80;;;1.43;;
6177;SDS011;3122;48.208;11.174;2022-09-09T14:05:34;5.43;;;1.60;;
6177;SDS011;3122;48.208;11.174;2022-09-09T14:10:34;3.00;;;1.30;;
6177;SDS011;3122;48.208;11.174;2022-09-09T14:15:36;3.23;;;1.40;;
6177;SDS011;3122;48.208;11.174;2022-09-09T14:20:37;2.60;;;1.73;;
6177;SDS011;3122;48.208;11.174;2022-09-09T14:25:41;2.27;;;1.30;;
6177;SDS011;3122;48.208;11.174;2022-09-09T14:30:43;2.60;;;1.30;;
6177;SDS011;3122;48.208;11.174;2022-09-09T14:35:46;1.83;;;1.50;;
6177;SDS011;3122;48.208;11.174;2022-09-09T14:40:47;1.50;;;1.33;;
6177;SDS011;3122;48.208;11.174;2022-09-09T14:45:48;3.70;;;1.40;;
6177;SDS011;3122;48.208;11.174;2022-09-09T14:50:51;2.10;;;1.20;;
6177;SDS011;3122;48.208;11.174;2022-09-09T14:55:51;2.07;;;1.40;;
6177;SDS011;3122;48.208;11.174;2022-09-09T15:00:52;3.20;;;1.23;;
6177;SDS011;3122;48.208;11.174;2022-09-09T15:05:53;1.90;;;1.30;;
6177;SDS011;3122;48.208;11.174;2022-09-09T15:11:00;2.20;;;1.60;;
6177;SDS011;3122;48.208;11.174;2022-09-09T15:16:05;1.50;;;1.30;;
6177;SDS011;3122;48.208;11.174;2022-09-09T15:21:29;1.97;;;1.30;;
6177;SDS011;3122;48.208;11.174;2022-09-09T15:26:32;2.60;;;1.30;;
6177;SDS011;3122;48.208;11.174;2022-09-09T15:31:32;1.57;;;1.47;;
6177;SDS011;3122;48.208;11.174;2022-09-09T15:36:40;1.83;;;1.40;;
6177;SDS011;3122;48.208;11.174;2022-09-09T15:41:42;2.00;;;1.37;;
6177;SDS011;3122;48.208;11.174;2022-09-09T15:46:50;1.93;;;1.30;;
6177;SDS011;3122;48.208;11.174;2022-09-09T15:51:57;2.20;;;1.73;;
6177;SDS011;3122;48.208;11.174;2022-09-09T15:57:03;2.20;;;1.40;;
6177;SDS011;3122;48.208;11.174;2022-09-09T16:02:04;1.40;;;1.30;;
6177;SDS011;3122;48.208;11.174;2022-09-09T16:07:05;4.43;;;1.40;;
6177;SDS011;3122;48.208;11.174;2022-09-09T16:12:06;1.80;;;1.30;;
6177;SDS011;3122;48.208;11.174;2022-09-09T16:17:07;4.83;;;1.37;;
6177;SDS011;3122;48.208;11.174;2022-09-09T16:22:08;1.40;;;1.30;;
6177;SDS011;3122;48.208;11.174;2022-09-09T16:27:09;1.53;;;1.20;;
6177;SDS011;3122;48.208;11.174;2022-09-09T16:32:11;3.20;;;1.57;;
6177;SDS011;3122;48.208;11.174;2022-09-09T16:37:12;6.30;;;1.60;;
6177;SDS011;3122;48.208;11.174;2022-09-09T16:42:12;1.50;;;1.40;;
6177;SDS011;3122;48.208;11.174;2022-09-09T16:47:13;2.10;;;1.50;;
6177;SDS011;3122;48.208;11.174;2022-09-09T16:52:13;1.40;;;1.30;;
6177;SDS011;3122;48.208;11.174;2022-09-09T16:57:14;1.80;;;1.23;;
6177;SDS011;3122;48.208;11.174;2022-09-09T17:02:14;2.40;;;1.13;;
6177;SDS011;3122;48.208;11.174;2022-09-09T17:07:15;1.37;;;1.27;;
6177;SDS011;3122;48.208;11.174;2022-09-09T17:12:15;1.67;;;1.23;;
6177;SDS011;3122;48.208;11.174;2022-09-09T17:17:17;1.73;;;1.40;;
6177;SDS011;3122;48.208;11.174;2022-09-09T17:22:17;1.43;;;1.30;;
6177;SDS011;3122;48.208;11.174;2022-09-09T17:27:19;1.50;;;1.40;;
6177;SDS011;3122;48.208;11.174;2022-09-09T17:32:20;1.80;;;1.70;;
6177;SDS011;3122;48.208;11.174;2022-09-09T17:37:21;2.80;;;1.50;;
6177;SDS011;3122;48.208;11.174;2022-09-09T17:42:21;1.73;;;1.30;;
6177;SDS011;3122;48.208;11.174;2022-09-09T17:47:22;3.03;;;1.30;;
6177;SDS011;3122;48.208;11.174;2022-09-09T17:52:22;2.37;;;1.60;;
6177;SDS011;3122;48.208;11.174;2022-09-09T17:57:23;2.13;;;1.63;;
6177;SDS011;3122;48.208;11.174;2022-09-09T18:02:24;1.70;;;1.60;;
6177;SDS011;3122;48.208;11.174;2022-09-09T18:07:25;2.50;;;2.40;;
6177;SDS011;3122;48.208;11.174;2022-09-09T18:12:25;2.30;;;2.10;;
6177;SDS011;3122;48.208;11.174;2022-09-09T18:17:26;1.83;;;1.70;;
6177;SDS011;3122;48.208;11.174;2022-09-09T18:22:27;1.60;;;1.50;;
6177;SDS011;3122;48.208;11.174;2022-09-09T18:27:30;1.70;;;1.60;;
6177;SDS011;3122;48.208;11.174;2022-09-09T18:32:31;3.93;;;3.53;;
6177;SDS011;3122;48.208;11.174;2022-09-09T18:37:33;2.30;;;1.80;;
6177;SDS011;3122;48.208;11.174;2022-09-09T18:42:35;1.40;;;1.30;;
6177;SDS011;3122;48.208;11.174;2022-09-09T18:47:35;8.23;;;1.60;;
6177;SDS011;3122;48.208;11.174;2022-09-09T18:52:36;1.50;;;1.40;;
6177;SDS011;3122;48.208;11.174;2022-09-09T18:57:37;2.13;;;1.67;;
6177;SDS011;3122;48.208;11.174;2022-09-09T19:02:37;2.30;;;1.50;;
6177;SDS011;3122;48.208;11.174;2022-09-09T19:07:38;2.93;;;1.50;;
6177;SDS011;3122;48.208;11.174;2022-09-09T19:12:40;1.70;;;1.60;;
6177;SDS011;3122;48.208;11.174;2022-09-09T19:17:40;3.90;;;3.50;;
6177;SDS011;3122;48.208;11.174;2022-09-09T19:22:41;6.30;;;4.10;;
6177;SDS011;3122;48.208;11.174;2022-09-09T19:27:42;5.97;;;4.10;;
6177;SDS011;3122;48.208;11.174;2022-09-09T19:32:42;4.03;;;2.80;;
6177;SDS011;3122;48.208;11.174;2022-09-09T19:37:43;2.87;;;2.10;;
6177;SDS011;3122;48.208;11.174;2022-09-09T19:42:44;2.23;;;1.70;;
6177;SDS011;3122;48.208;11.174;2022-09-09T19:47:45;4.63;;;1.70;;
6177;SDS011;3122;48.208;11.174;2022-09-09T19:52:45;1.70;;;1.60;;
6177;SDS011;3122;48.208;11.174;2022-09-09T19:57:46;1.90;;;1.80;;
6177;SDS011;3122;48.208;11.174;2022-09-09T20:02:47;2.03;;;1.80;;
6177;SDS011;3122;48.208;11.174;2022-09-09T20:07:49;5.90;;;2.40;;
6177;SDS011;3122;48.208;11.174;2022-09-09T20:12:50;1.70;;;1.50;;
6177;SDS011;3122;48.208;11.174;2022-09-09T20:17:51;1.40;;;1.30;;
6177;SDS011;3122;48.208;11.174;2022-09-09T20:22:52;4.60;;;1.80;;
6177;SDS011;3122;48.208;11.174;2022-09-09T20:27:52;3.50;;;1.70;;
6177;SDS011;3122;48.208;11.174;2022-09-09T20:32:53;6.30;;;1.63;;
6177;SDS011;3122;48.208;11.174;2022-09-09T20:37:54;3.07;;;1.70;;
6177;SDS011;3122;48.208;11.174;2022-09-09T20:42:54;2.40;;;1.60;;
6177;SDS011;3122;48.208;11.174;2022-09-09T20:47:55;1.97;;;1.70;;
6177;SDS011;3122;48.208;11.174;2022-09-09T20:52:56;1.80;;;1.70;;
6177;SDS011;3122;48.208;11.174;2022-09-09T20:57:57;2.63;;;1.83;;
6177;SDS011;3122;48.208;11.174;2022-09-09T21:02:59;1.70;;;1.60;;
6177;SDS011;3122;48.208;11.174;2022-09-09T21:08:01;3.37;;;1.50;;
6177;SDS011;3122;48.208;11.174;2022-09-09T21:13:02;2.30;;;1.60;;
6177;SDS011;3122;48.208;11.174;2022-09-09T21:18:02;1.50;;;1.40;;
6177;SDS011;3122;48.208;11.174;2022-09-09T21:23:03;2.27;;;1.43;;
6177;SDS011;3122;48.208;11.174;2022-09-09T21:28:04;1.57;;;1.23;;
6177;SDS011;3122;48.208;11.174;2022-09-09T21:33:05;1.60;;;1.40;;
6177;SDS011;3122;48.208;11.174;2022-09-09T21:38:12;2.13;;;1.27;;
6177;SDS011;3122;48.208;11.174;2022-09-09T21:43:16;1.80;;;1.70;;
6177;SDS011;3122;48.208;11.174;2022-09-09T21:48:18;2.90;;;1.50;;
6177;SDS011;3122;48.208;11.174;2022-09-09T21:53:19;1.63;;;1.47;;
6177;SDS011;3122;48.208;11.174;2022-09-09T21:58:20;4.00;;;1.90;;
6177;SDS011;3122;48.208;11.174;2022-09-09T22:03:20;1.87;;;1.70;;
6177;SDS011;3122;48.208;11.174;2022-09-09T22:08:22;3.00;;;1.80;;
6177;SDS011;3122;48.208;11.174;2022-09-09T22:13:23;2.40;;;1.80;;
6177;SDS011;3122;48.208;11.174;2022-09-09T22:18:23;3.00;;;1.93;;
6177;SDS011;3122;48.208;11.174;2022-09-09T22:23:24;2.47;;;2.10;;
6177;SDS011;3122;48.208;11.174;2022-09-09T22:28:25;2.53;;;2.33;;
6177;SDS011;3122;48.208;11.174;2022-09-09T22:33:25;2.93;;;2.30;;
6177;SDS011;3122;48.208;11.174;2022-09-09T22:38:27;2.70;;;1.90;;
6177;SDS011;3122;48.208;11.174;2022-09-09T22:43:28;2.07;;;1.97;;
6177;SDS011;3122;48.208;11.174;2022-09-09T22:48:32;1.90;;;1.80;;
6177;SDS011;3122;48.208;11.174;2022-09-09T22:53:33;1.53;;;1.40;;
6177;SDS011;3122;48.208;11.174;2022-09-09T22:58:35;1.87;;;1.77;;
6177;SDS011;3122;48.208;11.174;2022-09-09T23:03:35;1.60;;;1.50;;
6177;SDS011;3122;48.208;11.174;2022-09-09T23:08:36;1.77;;;1.40;;
6177;SDS011;3122;48.208;11.174;2022-09-09T23:13:38;1.40;;;1.30;;
6177;SDS011;3122;48.208;11.174;2022-09-09T23:18:43;1.30;;;1.17;;
6177;SDS011;3122;48.208;11.174;2022-09-09T23:23:44;1.73;;;1.27;;
6177;SDS011;3122;48.208;11.174;2022-09-09T23:28:45;1.00;;;1.00;;
6177;SDS011;3122;48.208;11.174;2022-09-09T23:33:47;1.50;;;1.30;;
6177;SDS011;3122;48.208;11.174;2022-09-09T23:38:48;1.30;;;1.20;;
6177;SDS011;3122;48.208;11.174;2022-09-09T23:43:49;1.43;;;1.10;;
6177;SDS011;3122;48.208;11.174;2022-09-09T23:48:51;1.60;;;1.20;;
6177;SDS011;3122;48.208;11.174;2022-09-09T23:53:52;1.67;;;1.30;;
6177;SDS011;3122;48.208;11.174;2022-09-09T23:58:55;1.13;;;1.03;;
